Time;durP1;ratioP1;P1;durP2;ratioP2;P2;SDS_P1;SDS_P2;PMS_P1;PMS_P2;Temp;Humidity;BMP_temperature;BMP_pressure;BME280_temperature;BME280_humidity;BME280_pressure;Samples;Min_cycle;Max_cycle;Signal;HPM_P1;HPM_P2
2020/12/23 00:01:58;;;;;;;19.67;4.25;;;8.10;99.90;;;;;;5019467;28;20291;-80
2020/12/23 00:04:25;;;;;;;11.68;4.43;;;8.00;99.90;;;;;;5019910;28;20315;-81
2020/12/23 00:06:51;;;;;;;9.00;3.70;;;8.10;99.90;;;;;;5018663;28;20285;-81
2020/12/23 00:09:18;;;;;;;8.98;2.85;;;8.10;99.90;;;;;;5019563;28;20634;-80
2020/12/23 00:11:44;;;;;;;9.23;3.25;;;8.10;99.90;;;;;;5034097;28;20228;-80
2020/12/23 00:14:11;;;;;;;14.10;3.40;;;8.00;99.90;;;;;;5036450;28;20287;-80
2020/12/23 00:16:42;;;;;;;5.10;3.05;;;8.00;99.90;;;;;;5037423;28;20560;-80
2020/12/23 00:19:08;;;;;;;8.02;3.13;;;8.00;99.90;;;;;;5035987;28;20192;-80
2020/12/23 00:21:34;;;;;;;8.25;3.10;;;8.00;99.90;;;;;;5034593;28;20268;-80
2020/12/23 00:24:01;;;;;;;12.27;3.30;;;7.90;99.90;;;;;;5034825;28;20252;-80
2020/12/23 00:26:27;;;;;;;9.18;2.72;;;8.00;99.90;;;;;;5034284;28;20208;-79
2020/12/23 00:28:53;;;;;;;12.30;2.90;;;8.20;99.90;;;;;;5034064;28;20267;-80
2020/12/23 00:31:19;;;;;;;10.68;3.78;;;8.10;99.90;;;;;;5035593;28;20250;-80
2020/12/23 00:33:47;;;;;;;9.27;2.90;;;8.00;99.90;;;;;;5034318;28;20232;-80
2020/12/23 00:36:14;;;;;;;13.63;3.10;;;8.10;99.90;;;;;;5022298;28;20200;-80
2020/12/23 00:38:40;;;;;;;6.07;2.65;;;8.10;99.90;;;;;;5016977;28;20294;-81
2020/12/23 00:41:08;;;;;;;14.20;3.67;;;8.00;99.90;;;;;;5017368;28;20211;-80
2020/12/23 00:43:34;;;;;;;7.53;2.75;;;8.00;99.90;;;;;;5016521;28;20212;-81
2020/12/23 00:46:01;;;;;;;14.80;4.15;;;8.00;99.90;;;;;;5017362;28;20216;-81
2020/12/23 00:48:27;;;;;;;8.38;3.05;;;7.90;99.90;;;;;;5016620;28;20288;-80
2020/12/23 00:50:54;;;;;;;6.03;3.45;;;7.90;99.90;;;;;;5015964;28;20295;-80
2020/12/23 00:53:21;;;;;;;9.98;3.60;;;8.00;99.90;;;;;;5016380;28;20228;-80
2020/12/23 00:55:50;;;;;;;9.25;3.15;;;7.90;99.90;;;;;;5016208;28;20295;-80
2020/12/23 00:58:16;;;;;;;10.32;2.97;;;7.90;99.90;;;;;;5016126;28;20231;-80
2020/12/23 01:00:42;;;;;;;11.82;4.00;;;7.90;99.90;;;;;;5017352;28;20298;-80
2020/12/23 01:03:09;;;;;;;6.88;2.90;;;7.90;99.90;;;;;;5016483;28;20236;-81
2020/12/23 01:05:37;;;;;;;13.88;3.20;;;8.10;99.90;;;;;;5016502;28;20594;-80
2020/12/23 01:08:05;;;;;;;10.00;2.70;;;8.10;99.90;;;;;;5015710;28;20200;-81
2020/12/23 01:10:31;;;;;;;7.10;2.58;;;8.00;99.90;;;;;;5015088;28;20311;-81
2020/12/23 01:12:57;;;;;;;10.13;3.08;;;8.00;99.90;;;;;;5015365;28;20230;-81
2020/12/23 01:15:24;;;;;;;19.13;3.67;;;7.90;99.90;;;;;;5015684;28;20573;-81
2020/12/23 01:17:50;;;;;;;7.03;2.83;;;7.90;99.90;;;;;;5015276;28;20715;-81
2020/12/23 01:20:16;;;;;;;15.07;3.60;;;8.00;99.90;;;;;;5018581;28;20662;-81
2020/12/23 01:22:43;;;;;;;5.68;3.00;;;7.90;99.90;;;;;;5019482;28;20275;-81
2020/12/23 01:25:10;;;;;;;6.80;3.03;;;7.90;99.90;;;;;;5023599;28;20741;-81
2020/12/23 01:27:36;;;;;;;8.90;3.78;;;7.90;99.90;;;;;;5019247;28;20229;-81
2020/12/23 01:30:03;;;;;;;13.68;3.78;;;8.00;99.90;;;;;;5019130;28;20200;-82
2020/12/23 01:32:29;;;;;;;14.57;3.58;;;7.90;99.90;;;;;;5019389;28;20278;-81
2020/12/23 01:34:56;;;;;;;21.13;3.90;;;7.90;99.90;;;;;;5019786;28;20295;-80
2020/12/23 01:37:22;;;;;;;8.68;3.25;;;7.90;99.90;;;;;;5019008;28;20723;-81
2020/12/23 01:39:48;;;;;;;13.45;3.00;;;7.90;99.90;;;;;;5017861;28;20295;-81
2020/12/23 01:42:15;;;;;;;5.40;2.47;;;7.90;99.90;;;;;;5016524;28;20235;-81
2020/12/23 01:44:42;;;;;;;11.10;3.13;;;7.80;99.90;;;;;;5019777;28;20291;-81
2020/12/23 01:47:15;;;;;;;7.40;2.45;;;7.80;99.90;;;;;;5019560;28;20205;-81
2020/12/23 01:49:41;;;;;;;5.05;3.15;;;7.80;99.90;;;;;;5020112;28;20280;-81
2020/12/23 01:52:08;;;;;;;11.35;3.60;;;7.80;99.90;;;;;;5018984;28;20216;-81
2020/12/23 01:54:34;;;;;;;7.45;2.65;;;7.70;99.90;;;;;;5018574;28;20200;-80
2020/12/23 01:57:02;;;;;;;7.82;3.10;;;7.70;99.90;;;;;;5017845;28;20367;-81
2020/12/23 01:59:30;;;;;;;11.27;3.70;;;7.90;99.90;;;;;;5018215;28;20295;-81
2020/12/23 02:02:08;;;;;;;16.23;4.35;;;7.80;99.90;;;;;;5018008;28;20227;-81
2020/12/23 02:04:34;;;;;;;10.27;3.45;;;7.80;99.90;;;;;;5017111;28;20212;-81
2020/12/23 02:07:00;;;;;;;10.93;3.22;;;7.80;99.90;;;;;;5014234;28;20928;-81
2020/12/23 02:09:28;;;;;;;11.75;4.50;;;7.80;99.90;;;;;;5016203;28;20205;-81
2020/12/23 02:11:55;;;;;;;11.35;4.00;;;7.80;99.90;;;;;;5016722;28;20207;-81
2020/12/23 02:14:22;;;;;;;9.93;3.50;;;7.80;99.90;;;;;;5017437;28;20224;-81
2020/12/23 02:16:51;;;;;;;19.38;3.25;;;7.80;99.90;;;;;;5016407;28;20225;-80
2020/12/23 02:19:17;;;;;;;15.52;3.97;;;7.80;99.90;;;;;;5017066;28;20200;-81
2020/12/23 02:21:44;;;;;;;11.43;2.95;;;7.80;99.90;;;;;;5016367;28;20212;-81
2020/12/23 02:24:11;;;;;;;12.45;3.17;;;7.80;99.90;;;;;;5016237;28;20454;-81
2020/12/23 02:26:38;;;;;;;9.05;3.10;;;7.80;99.90;;;;;;5017646;28;20204;-81
2020/12/23 02:29:04;;;;;;;11.70;3.42;;;7.70;99.90;;;;;;5017421;28;20278;-81
2020/12/23 02:31:31;;;;;;;15.18;3.83;;;7.90;99.90;;;;;;5021473;28;20228;-81
2020/12/23 02:33:57;;;;;;;10.70;4.28;;;7.90;99.90;;;;;;5034949;28;20287;-81
2020/12/23 02:36:23;;;;;;;15.30;3.38;;;7.80;99.90;;;;;;5031840;28;20204;-81
2020/12/23 02:38:50;;;;;;;10.85;3.85;;;7.80;99.90;;;;;;5019956;28;20211;-81
2020/12/23 02:41:17;;;;;;;13.77;3.83;;;7.90;99.90;;;;;;5017401;28;20211;-81
2020/12/23 02:43:43;;;;;;;8.68;2.97;;;8.00;99.90;;;;;;5017200;28;20278;-81
2020/12/23 02:46:10;;;;;;;8.65;4.22;;;8.00;99.90;;;;;;5017604;28;20240;-81
2020/12/23 02:48:36;;;;;;;8.23;3.30;;;7.90;99.90;;;;;;5017052;28;20236;-80
2020/12/23 02:51:03;;;;;;;10.93;3.58;;;7.90;99.90;;;;;;5016653;28;20220;-80
2020/12/23 02:53:29;;;;;;;8.68;2.85;;;8.00;99.90;;;;;;5016738;28;20704;-82
2020/12/23 02:55:55;;;;;;;6.90;3.10;;;7.90;99.90;;;;;;5016911;28;20219;-80
2020/12/23 02:58:23;;;;;;;7.88;2.95;;;8.00;99.90;;;;;;5017511;28;20267;-81
2020/12/23 03:00:49;;;;;;;9.13;3.30;;;8.00;99.90;;;;;;5017157;28;20275;-80
2020/12/23 03:03:16;;;;;;;9.60;2.97;;;7.90;99.90;;;;;;5016969;28;20232;-81
2020/12/23 03:05:42;;;;;;;9.48;3.50;;;7.90;99.90;;;;;;5017216;28;20204;-81
2020/12/23 03:08:08;;;;;;;14.90;3.30;;;7.90;99.90;;;;;;5017267;28;20257;-80
2020/12/23 03:10:35;;;;;;;12.32;3.80;;;8.00;99.90;;;;;;5016582;28;20302;-80
2020/12/23 03:13:01;;;;;;;9.55;2.70;;;8.00;99.90;;;;;;5016860;28;20230;-82
2020/12/23 03:15:28;;;;;;;13.98;4.97;;;8.00;99.90;;;;;;5017309;28;20331;-81
2020/12/23 03:17:54;;;;;;;13.60;2.88;;;8.00;99.90;;;;;;5017029;28;20577;-81
2020/12/23 03:20:21;;;;;;;5.25;2.67;;;7.90;99.90;;;;;;5016356;28;20635;-81
2020/12/23 03:22:47;;;;;;;15.00;3.33;;;7.90;99.90;;;;;;5016992;28;20220;-82
2020/12/23 03:25:13;;;;;;;11.20;3.67;;;7.90;99.90;;;;;;5016956;28;20208;-81
2020/12/23 03:27:39;;;;;;;16.40;3.38;;;7.80;99.90;;;;;;5017700;28;20204;-81
2020/12/23 03:30:06;;;;;;;11.05;3.25;;;7.80;99.90;;;;;;5017302;28;20320;-81
2020/12/23 03:32:33;;;;;;;13.27;3.60;;;7.80;99.90;;;;;;5016998;28;20244;-81
2020/12/23 03:34:59;;;;;;;17.05;3.30;;;7.80;99.90;;;;;;5017455;28;20236;-81
2020/12/23 03:37:26;;;;;;;7.93;3.20;;;7.80;99.90;;;;;;5017572;28;20224;-81
2020/12/23 03:39:52;;;;;;;7.35;2.53;;;7.70;99.90;;;;;;5017285;28;20204;-81
2020/12/23 03:42:18;;;;;;;10.45;2.78;;;7.70;99.90;;;;;;5027370;28;20259;-81
2020/12/23 03:44:44;;;;;;;7.93;2.38;;;7.70;99.90;;;;;;5034772;28;20271;-80
2020/12/23 03:47:11;;;;;;;14.40;3.15;;;7.70;99.90;;;;;;5030581;28;20232;-81
2020/12/23 03:49:38;;;;;;;10.82;4.00;;;7.80;99.90;;;;;;5018852;28;20291;-81
2020/12/23 03:52:04;;;;;;;10.68;3.30;;;7.70;99.90;;;;;;5016111;28;20215;-81
2020/12/23 03:54:31;;;;;;;11.10;3.03;;;7.80;99.90;;;;;;5015664;28;20278;-82
2020/12/23 03:56:57;;;;;;;12.20;3.55;;;7.80;99.90;;;;;;5015717;28;20220;-81
2020/12/23 03:59:23;;;;;;;10.25;3.70;;;7.80;99.90;;;;;;5015918;28;20295;-81
2020/12/23 04:01:50;;;;;;;26.85;4.03;;;7.90;99.90;;;;;;5016508;28;20200;-81
2020/12/23 04:04:16;;;;;;;7.90;3.10;;;7.90;99.90;;;;;;5015770;28;20381;-81
2020/12/23 04:06:43;;;;;;;14.80;4.07;;;7.90;99.90;;;;;;5016118;28;20583;-81
2020/12/23 04:09:09;;;;;;;7.45;2.72;;;7.90;99.90;;;;;;5016516;28;20311;-81
2020/12/23 04:11:36;;;;;;;6.32;2.90;;;8.00;99.90;;;;;;5016774;28;20743;-81
2020/12/23 04:14:03;;;;;;;15.07;3.72;;;8.00;99.90;;;;;;5017399;28;20734;-81
2020/12/23 04:16:29;;;;;;;9.93;3.50;;;8.00;99.90;;;;;;5017238;28;20222;-80
2020/12/23 04:18:56;;;;;;;8.30;3.25;;;8.00;99.90;;;;;;5016156;28;20288;-81
2020/12/23 04:21:22;;;;;;;9.23;3.30;;;8.10;99.90;;;;;;5016395;28;20283;-81
2020/12/23 04:23:49;;;;;;;12.18;3.78;;;8.00;99.90;;;;;;5016067;28;20224;-81
2020/12/23 04:26:15;;;;;;;9.65;2.60;;;8.00;99.90;;;;;;5016250;28;20295;-81
2020/12/23 04:28:42;;;;;;;11.70;3.50;;;7.80;99.90;;;;;;5017163;28;20200;-81
2020/12/23 04:31:08;;;;;;;11.25;3.22;;;7.70;99.90;;;;;;5017713;28;20208;-81
2020/12/23 04:33:34;;;;;;;9.32;2.78;;;7.60;99.90;;;;;;5016843;28;20227;-81
2020/12/23 04:36:01;;;;;;;11.50;3.00;;;7.70;99.90;;;;;;5016447;28;20208;-82
2020/12/23 04:38:30;;;;;;;8.52;3.40;;;7.70;99.90;;;;;;5016448;28;20274;-82
2020/12/23 04:40:57;;;;;;;4.53;2.72;;;7.70;99.90;;;;;;5017778;28;20211;-81
2020/12/23 04:43:23;;;;;;;8.43;2.80;;;7.80;99.90;;;;;;5024477;28;20292;-81
2020/12/23 04:45:51;;;;;;;9.85;2.83;;;7.90;99.90;;;;;;5025623;28;20211;-81
2020/12/23 04:48:24;;;;;;;10.00;2.97;;;7.80;99.90;;;;;;5024631;28;20200;-81
2020/12/23 04:50:53;;;;;;;13.70;3.75;;;7.80;99.90;;;;;;5023109;28;20263;-81
2020/12/23 04:53:20;;;;;;;7.55;2.60;;;7.80;99.90;;;;;;5026112;28;20220;-82
2020/12/23 04:55:47;;;;;;;15.68;4.88;;;7.80;99.90;;;;;;5027281;28;20633;-81
2020/12/23 04:58:14;;;;;;;10.30;3.13;;;7.80;99.90;;;;;;5022946;28;20491;-81
2020/12/23 05:00:41;;;;;;;11.63;3.33;;;7.90;99.90;;;;;;5022542;28;20212;-82
2020/12/23 05:03:07;;;;;;;17.75;4.82;;;7.70;99.90;;;;;;5036931;22;20287;-86
2020/12/23 05:05:33;;;;;;;13.85;3.03;;;7.70;99.90;;;;;;5029214;28;20181;-86
2020/12/23 05:08:00;;;;;;;7.95;2.65;;;7.70;99.90;;;;;;5026633;28;20284;-87
2020/12/23 05:10:29;;;;;;;18.10;3.60;;;7.80;99.90;;;;;;5024811;28;20688;-87
2020/12/23 05:12:56;;;;;;;9.43;2.47;;;7.80;99.90;;;;;;5027737;28;20228;-85
2020/12/23 05:15:24;;;;;;;6.25;2.80;;;7.70;99.90;;;;;;5025020;28;20295;-87
2020/12/23 05:17:51;;;;;;;10.32;3.10;;;7.70;99.90;;;;;;5024295;28;20258;-85
2020/12/23 05:20:17;;;;;;;7.55;2.95;;;7.70;99.90;;;;;;5024394;28;20442;-87
2020/12/23 05:22:47;;;;;;;9.30;3.28;;;7.60;99.90;;;;;;5027927;28;20294;-86
2020/12/23 05:25:15;;;;;;;13.82;3.60;;;7.70;99.90;;;;;;5026931;28;20291;-85
2020/12/23 05:27:42;;;;;;;11.82;2.90;;;7.70;99.90;;;;;;5026387;28;20200;-87
2020/12/23 05:30:10;;;;;;;7.50;3.13;;;7.70;99.90;;;;;;5025243;28;20208;-86
2020/12/23 05:32:39;;;;;;;10.48;3.28;;;7.70;99.90;;;;;;5025315;28;20520;-86
2020/12/23 05:35:05;;;;;;;9.77;3.83;;;7.80;99.90;;;;;;5025115;28;20206;-86
2020/12/23 05:37:32;;;;;;;15.77;5.00;;;7.70;99.90;;;;;;5025114;28;20216;-87
2020/12/23 05:40:00;;;;;;;8.43;3.58;;;7.70;99.90;;;;;;5025380;28;20219;-87
2020/12/23 05:42:27;;;;;;;6.68;2.90;;;7.80;99.90;;;;;;5025394;28;20271;-87
2020/12/23 05:44:54;;;;;;;7.60;2.90;;;7.70;99.90;;;;;;5024808;28;20256;-88
2020/12/23 05:47:22;;;;;;;13.98;2.90;;;7.70;99.90;;;;;;5035394;28;20196;-85
2020/12/23 05:49:51;;;;;;;19.00;4.57;;;7.60;99.90;;;;;;5039874;28;20212;-87
2020/12/23 05:52:18;;;;;;;7.72;3.40;;;7.60;99.90;;;;;;5035174;28;20647;-84
2020/12/23 05:54:45;;;;;;;10.88;2.90;;;7.60;99.90;;;;;;5029383;28;20221;-85
2020/12/23 05:57:11;;;;;;;13.95;5.57;;;7.60;99.90;;;;;;5028871;28;20240;-85
2020/12/23 05:59:38;;;;;;;8.10;3.90;;;7.60;99.90;;;;;;5033470;28;20240;-86
2020/12/23 06:02:05;;;;;;;9.45;3.42;;;7.60;99.90;;;;;;5031107;28;20344;-85
2020/12/23 06:04:32;;;;;;;7.13;3.28;;;7.60;99.90;;;;;;5024828;28;20266;-86
2020/12/23 06:07:05;;;;;;;14.60;3.90;;;7.50;99.90;;;;;;5025719;28;20222;-85
2020/12/23 06:09:37;;;;;;;13.65;4.55;;;7.60;99.90;;;;;;5026897;28;20189;-86
2020/12/23 06:12:16;;;;;;;17.05;4.88;;;7.60;99.90;;;;;;5026806;28;20211;-84
2020/12/23 06:14:54;;;;;;;11.82;3.97;;;7.60;99.90;;;;;;5028028;28;20228;-85
2020/12/23 06:17:21;;;;;;;14.95;4.18;;;7.60;99.90;;;;;;5029251;28;20239;-87
2020/12/23 06:19:49;;;;;;;13.48;4.00;;;7.50;99.90;;;;;;5027706;28;20498;-85
2020/12/23 06:22:17;;;;;;;10.82;3.00;;;7.40;99.90;;;;;;5028171;28;20212;-85
2020/12/23 06:24:45;;;;;;;11.82;4.43;;;7.40;99.90;;;;;;5027831;28;20303;-85
2020/12/23 06:27:12;;;;;;;14.75;5.10;;;7.50;99.90;;;;;;5027539;28;20575;-85
2020/12/23 06:29:40;;;;;;;9.93;3.80;;;7.50;99.90;;;;;;5027533;28;20204;-85
2020/12/23 06:32:07;;;;;;;14.55;4.40;;;7.50;99.90;;;;;;5027515;28;20264;-84
2020/12/23 06:34:35;;;;;;;17.55;4.80;;;7.50;99.90;;;;;;5028368;28;20243;-84
2020/12/23 06:37:18;;;;;;;9.95;4.15;;;7.50;99.90;;;;;;5034415;28;20201;-84
2020/12/23 06:39:45;;;;;;;15.38;4.30;;;7.50;99.90;;;;;;5035612;28;20193;-84
2020/12/23 06:42:37;;;;;;;16.65;4.65;;;7.50;99.90;;;;;;5034953;28;20251;-84
2020/12/23 06:45:13;;;;;;;20.17;4.57;;;7.50;99.90;;;;;;5031716;28;20744;-86
2020/12/23 06:47:41;;;;;;;16.45;5.85;;;7.60;99.90;;;;;;5028038;28;20216;-84
2020/12/23 06:50:15;;;;;;;15.98;6.85;;;7.60;99.90;;;;;;5036166;28;20204;-84
2020/12/23 06:52:46;;;;;;;16.58;4.40;;;7.70;99.90;;;;;;5037026;28;20246;-84
2020/12/23 06:55:15;;;;;;;16.23;5.30;;;7.60;99.90;;;;;;5036210;28;20204;-83
2020/12/23 06:57:55;;;;;;;15.63;5.63;;;7.70;99.90;;;;;;5037484;28;20220;-85
2020/12/23 07:00:41;;;;;;;14.10;4.80;;;7.70;99.90;;;;;;5033429;28;20188;-84
2020/12/23 07:03:11;;;;;;;15.93;4.35;;;7.70;99.90;;;;;;5033527;28;20236;-84
2020/12/23 07:05:46;;;;;;;14.82;4.55;;;7.60;99.90;;;;;;5032222;28;20213;-84
2020/12/23 07:08:16;;;;;;;19.55;6.85;;;7.70;99.90;;;;;;5029193;28;20188;-85
2020/12/23 07:10:48;;;;;;;9.95;4.05;;;7.90;99.90;;;;;;5028867;28;20215;-84
2020/12/23 07:13:19;;;;;;;13.77;4.38;;;7.90;99.90;;;;;;5028027;28;20252;-85
2020/12/23 07:15:56;;;;;;;14.20;4.25;;;7.80;99.90;;;;;;5026195;28;20280;-86
2020/12/23 07:18:28;;;;;;;20.55;9.48;;;7.80;99.90;;;;;;5026799;28;20276;-86
2020/12/23 07:21:01;;;;;;;11.02;3.55;;;7.80;99.90;;;;;;5026384;28;20267;-84
2020/12/23 07:23:30;;;;;;;7.28;3.35;;;7.70;99.90;;;;;;5027071;28;20235;-84
2020/12/23 07:25:58;;;;;;;11.98;4.03;;;7.90;99.90;;;;;;5027622;28;20231;-85
2020/12/23 07:28:30;;;;;;;18.70;4.47;;;7.80;99.90;;;;;;5033099;28;20210;-84
2020/12/23 07:30:58;;;;;;;20.58;4.97;;;7.60;99.90;;;;;;5033332;28;20252;-84
2020/12/23 07:33:25;;;;;;;15.02;5.20;;;7.60;99.90;;;;;;5027088;28;20318;-86
2020/12/23 07:35:52;;;;;;;22.05;9.80;;;7.60;99.90;;;;;;5023318;28;20744;-86
2020/12/23 07:38:20;;;;;;;13.82;6.18;;;7.70;99.90;;;;;;5022970;28;20263;-85
2020/12/23 07:40:47;;;;;;;22.70;8.82;;;7.70;99.90;;;;;;5023011;28;20204;-85
2020/12/23 07:43:15;;;;;;;23.08;9.63;;;7.70;99.90;;;;;;5024394;28;20224;-85
2020/12/23 07:45:43;;;;;;;14.30;6.32;;;7.70;99.90;;;;;;5024318;28;20264;-85
2020/12/23 07:48:11;;;;;;;13.80;6.10;;;7.80;99.90;;;;;;5025814;28;20207;-84
2020/12/23 07:50:39;;;;;;;16.30;6.22;;;7.80;99.90;;;;;;5034984;28;20644;-83
2020/12/23 07:53:13;;;;;;;17.40;5.45;;;7.90;99.90;;;;;;5035122;28;20273;-84
2020/12/23 07:55:40;;;;;;;21.23;6.22;;;7.80;99.90;;;;;;5034738;28;20264;-84
2020/12/23 07:58:08;;;;;;;16.25;6.05;;;7.70;99.90;;;;;;5034117;28;20252;-84
2020/12/23 08:00:37;;;;;;;17.20;6.90;;;7.70;99.90;;;;;;5026775;28;20227;-86
2020/12/23 08:03:03;;;;;;;14.38;7.50;;;7.90;99.90;;;;;;5024143;28;20670;-86
2020/12/23 08:05:31;;;;;;;15.85;5.97;;;8.00;99.90;;;;;;5023055;28;20188;-86
2020/12/23 08:07:58;;;;;;;15.13;5.75;;;8.00;99.90;;;;;;5024178;28;20235;-86
2020/12/23 08:10:24;;;;;;;13.82;4.32;;;7.90;99.90;;;;;;5025105;28;20204;-86
2020/12/23 08:12:54;;;;;;;12.43;5.18;;;7.80;99.90;;;;;;5024149;28;20260;-85
2020/12/23 08:15:22;;;;;;;12.70;4.30;;;7.90;99.90;;;;;;5024357;28;20189;-85
2020/12/23 08:17:57;;;;;;;10.85;4.22;;;7.90;99.90;;;;;;5024248;28;20244;-85
2020/12/23 08:20:24;;;;;;;14.63;4.57;;;7.90;99.90;;;;;;5025598;28;20224;-85
2020/12/23 08:22:58;;;;;;;15.63;5.88;;;8.00;99.90;;;;;;5023288;28;20226;-87
2020/12/23 08:25:25;;;;;;;14.75;4.75;;;8.10;99.90;;;;;;5028298;28;20214;-85
2020/12/23 08:27:53;;;;;;;11.50;5.50;;;8.00;99.90;;;;;;5033113;28;20211;-85
2020/12/23 08:30:21;;;;;;;8.98;4.43;;;7.90;99.90;;;;;;5034462;28;20263;-85
2020/12/23 08:32:56;;;;;;;9.90;3.80;;;7.80;99.90;;;;;;5030166;28;20270;-85
2020/12/23 08:35:26;;;;;;;11.50;5.40;;;7.90;99.90;;;;;;5030126;28;20195;-85
2020/12/23 08:37:53;;;;;;;10.75;3.92;;;7.90;99.90;;;;;;5027634;28;20277;-85
2020/12/23 08:40:22;;;;;;;12.50;5.50;;;8.00;99.90;;;;;;5026277;28;20232;-85
2020/12/23 08:42:54;;;;;;;14.40;4.10;;;8.10;99.90;;;;;;5022755;28;20227;-87
2020/12/23 08:45:25;;;;;;;20.83;4.40;;;8.00;99.90;;;;;;5022658;28;20223;-86
2020/12/23 08:47:53;;;;;;;9.50;4.20;;;8.00;99.90;;;;;;5023715;28;20716;-85
2020/12/23 08:50:21;;;;;;;15.73;4.85;;;8.20;99.90;;;;;;5024282;28;20215;-85
2020/12/23 08:52:48;;;;;;;21.33;5.35;;;8.20;99.90;;;;;;5024209;28;20231;-86
2020/12/23 08:55:16;;;;;;;14.48;5.93;;;8.10;99.90;;;;;;5023019;28;20269;-86
2020/12/23 08:57:44;;;;;;;11.02;4.00;;;8.00;99.90;;;;;;5022208;28;20217;-86
2020/12/23 09:00:16;;;;;;;16.50;4.60;;;8.10;99.90;;;;;;5022148;28;20258;-85
2020/12/23 09:02:44;;;;;;;11.48;4.70;;;8.20;99.90;;;;;;5021981;28;20531;-84
2020/12/23 09:05:26;;;;;;;15.95;5.47;;;8.10;99.90;;;;;;5021962;28;20732;-84
2020/12/23 09:08:04;;;;;;;12.63;4.40;;;8.00;99.90;;;;;;5022182;28;20264;-86
2020/12/23 09:10:31;;;;;;;11.35;4.85;;;8.10;99.90;;;;;;5026050;28;20284;-84
2020/12/23 09:13:08;;;;;;;17.33;5.38;;;8.20;99.90;;;;;;5024475;28;20228;-87
2020/12/23 09:15:35;;;;;;;15.27;4.45;;;8.10;99.90;;;;;;5028305;28;20219;-87
2020/12/23 09:18:08;;;;;;;14.95;4.90;;;7.90;99.90;;;;;;5028598;28;20276;-85
2020/12/23 09:20:37;;;;;;;16.17;5.25;;;7.90;99.90;;;;;;5026098;28;20292;-86
2020/12/23 09:23:04;;;;;;;9.38;3.88;;;8.00;99.90;;;;;;5028787;28;20236;-86
2020/12/23 09:25:31;;;;;;;6.85;3.80;;;8.00;99.90;;;;;;5032239;28;20296;-85
2020/12/23 09:28:06;;;;;;;14.07;5.43;;;8.10;99.90;;;;;;5029048;28;20204;-84
2020/12/23 09:30:34;;;;;;;13.98;5.60;;;8.00;99.90;;;;;;5033638;28;20271;-86
2020/12/23 09:33:00;;;;;;;10.52;4.60;;;8.00;99.90;;;;;;5032704;28;20224;-84
2020/12/23 09:35:28;;;;;;;7.68;4.15;;;7.90;99.90;;;;;;5033500;28;20287;-84
2020/12/23 09:38:09;;;;;;;16.38;5.43;;;8.00;99.90;;;;;;5025266;28;20311;-86
2020/12/23 09:40:37;;;;;;;8.32;4.38;;;8.10;99.90;;;;;;5026092;28;20185;-86
2020/12/23 09:43:12;;;;;;;12.40;4.75;;;8.10;99.90;;;;;;5028589;28;20292;-85
2020/12/23 09:45:40;;;;;;;9.18;4.07;;;8.10;99.90;;;;;;5027269;28;20207;-88
2020/12/23 09:48:06;;;;;;;10.73;4.20;;;8.10;99.90;;;;;;5025332;28;20283;-86
2020/12/23 09:50:33;;;;;;;10.85;4.65;;;8.10;99.90;;;;;;5028156;28;20275;-86
2020/12/23 09:52:59;;;;;;;13.45;4.35;;;8.20;99.90;;;;;;5025843;28;20282;-86
2020/12/23 09:55:26;;;;;;;16.08;8.13;;;8.30;99.90;;;;;;5026074;28;20212;-85
2020/12/23 09:57:53;;;;;;;10.77;4.93;;;8.30;99.90;;;;;;5026696;28;20224;-86
2020/12/23 10:00:20;;;;;;;10.40;4.80;;;8.30;99.90;;;;;;5026871;28;20232;-86
2020/12/23 10:02:46;;;;;;;9.82;4.45;;;8.30;99.90;;;;;;5025931;28;20550;-87
2020/12/23 10:05:12;;;;;;;11.63;5.10;;;8.50;99.90;;;;;;5025285;28;20185;-85
2020/12/23 10:07:39;;;;;;;12.05;4.72;;;8.60;99.90;;;;;;5026151;28;20501;-86
2020/12/23 10:10:06;;;;;;;19.40;5.82;;;8.70;99.90;;;;;;5027489;28;20237;-86
2020/12/23 10:12:33;;;;;;;14.07;4.80;;;8.70;99.90;;;;;;5026921;28;20247;-86
2020/12/23 10:15:00;;;;;;;16.77;5.47;;;8.70;99.90;;;;;;5025845;28;20434;-87
2020/12/23 10:17:26;;;;;;;15.23;5.55;;;8.80;99.90;;;;;;5027527;28;20551;-85
2020/12/23 10:19:52;;;;;;;33.70;22.57;;;8.70;99.90;;;;;;5030211;28;20204;-87
2020/12/23 10:22:19;;;;;;;11.63;6.20;;;8.40;99.90;;;;;;5027532;28;20534;-87
2020/12/23 10:24:45;;;;;;;11.57;4.80;;;8.60;99.90;;;;;;5033989;28;20478;-86
2020/12/23 10:27:11;;;;;;;9.90;4.50;;;8.50;99.90;;;;;;5036452;28;20220;-86
2020/12/23 10:29:39;;;;;;;10.60;4.57;;;8.40;99.90;;;;;;5035920;28;20474;-86
2020/12/23 10:32:05;;;;;;;15.55;5.60;;;8.60;99.90;;;;;;5036196;28;20458;-85
2020/12/23 10:34:31;;;;;;;9.00;4.00;;;8.50;99.90;;;;;;5034650;28;20234;-85
2020/12/23 10:36:58;;;;;;;10.70;5.07;;;8.60;99.90;;;;;;5030302;28;20490;-86
2020/12/23 10:39:24;;;;;;;16.30;5.30;;;8.80;99.90;;;;;;5035123;28;20538;-85
2020/12/23 10:41:54;;;;;;;9.48;4.40;;;8.60;99.90;;;;;;5034204;28;20239;-84
2020/12/23 10:44:21;;;;;;;10.75;4.55;;;8.60;99.90;;;;;;5031717;28;20277;-87
2020/12/23 10:46:53;;;;;;;11.98;5.00;;;8.30;99.90;;;;;;5028418;28;20254;-85
2020/12/23 10:49:19;;;;;;;7.97;3.60;;;8.30;99.90;;;;;;5026725;28;20185;-87
2020/12/23 10:51:49;;;;;;;10.52;4.57;;;8.50;99.90;;;;;;5025863;28;20566;-85
2020/12/23 10:54:15;;;;;;;12.63;5.93;;;8.30;99.90;;;;;;5025940;28;20225;-86
2020/12/23 10:56:42;;;;;;;11.10;5.27;;;8.30;99.90;;;;;;5024966;28;20471;-86
2020/12/23 10:59:08;;;;;;;8.27;4.22;;;8.20;99.90;;;;;;5025652;28;20594;-86
2020/12/23 11:01:35;;;;;;;10.60;4.03;;;8.50;99.90;;;;;;5027759;28;20208;-86
2020/12/23 11:04:02;;;;;;;7.93;4.55;;;8.40;99.90;;;;;;5060775;22;20235;-83
2020/12/23 11:06:28;;;;;;;13.90;5.10;;;8.40;99.90;;;;;;5019115;28;20726;-82
2020/12/23 11:08:55;;;;;;;8.32;4.38;;;8.40;99.90;;;;;;5018226;28;20530;-82
2020/12/23 11:11:21;;;;;;;11.93;4.53;;;8.40;99.90;;;;;;5019414;28;20709;-81
2020/12/23 11:13:47;;;;;;;17.10;5.45;;;8.50;99.90;;;;;;5019939;28;20224;-82
2020/12/23 11:16:14;;;;;;;10.18;4.55;;;8.30;99.90;;;;;;5019959;28;20611;-81
2020/12/23 11:18:41;;;;;;;9.20;3.75;;;8.30;99.90;;;;;;5019683;28;20701;-81
2020/12/23 11:21:09;;;;;;;13.65;5.50;;;8.30;99.90;;;;;;5019023;28;20223;-81
2020/12/23 11:23:35;;;;;;;15.68;5.78;;;8.40;99.90;;;;;;5018548;28;20728;-82
2020/12/23 11:26:02;;;;;;;13.82;5.72;;;8.30;99.90;;;;;;5020142;28;20204;-81
2020/12/23 11:28:29;;;;;;;12.40;5.00;;;8.40;99.90;;;;;;5019803;28;20254;-81
2020/12/23 11:30:59;;;;;;;15.75;4.90;;;8.60;99.90;;;;;;5019068;28;20458;-81
2020/12/23 11:33:25;;;;;;;10.48;4.43;;;8.60;99.90;;;;;;5018747;28;20231;-82
2020/12/23 11:35:52;;;;;;;16.48;4.78;;;8.60;99.90;;;;;;5019329;28;20224;-82
2020/12/23 11:38:19;;;;;;;9.43;4.55;;;8.50;99.90;;;;;;5018395;28;20234;-82
2020/12/23 11:40:45;;;;;;;8.23;4.18;;;8.60;99.90;;;;;;5018646;28;20295;-82
2020/12/23 11:43:12;;;;;;;13.43;5.93;;;8.70;99.90;;;;;;5018030;28;20230;-82
2020/12/23 11:45:38;;;;;;;9.60;5.33;;;8.60;99.90;;;;;;5017910;28;20459;-82
2020/12/23 11:48:05;;;;;;;14.73;8.00;;;8.60;99.90;;;;;;5018386;28;20453;-82
2020/12/23 11:50:31;;;;;;;16.37;5.30;;;8.70;99.90;;;;;;5018206;28;20372;-82
2020/12/23 11:52:57;;;;;;;15.85;6.68;;;8.70;99.90;;;;;;5018623;28;20505;-83
2020/12/23 11:55:24;;;;;;;10.47;6.20;;;8.50;99.90;;;;;;5018412;28;20204;-82
2020/12/23 11:57:51;;;;;;;11.95;7.13;;;8.40;99.90;;;;;;5018144;28;20542;-83
2020/12/23 12:00:17;;;;;;;14.82;6.25;;;8.40;99.90;;;;;;5017422;28;20234;-82
2020/12/23 12:02:43;;;;;;;15.05;6.03;;;8.50;99.90;;;;;;5017537;28;20200;-82
2020/12/23 12:05:10;;;;;;;19.67;7.00;;;8.70;99.90;;;;;;5017772;28;20235;-82
2020/12/23 12:07:37;;;;;;;16.50;5.47;;;8.50;99.90;;;;;;5018506;28;20487;-82
2020/12/23 12:10:04;;;;;;;19.58;6.28;;;8.50;99.90;;;;;;5018554;28;20211;-82
2020/12/23 12:12:31;;;;;;;13.90;7.35;;;8.40;99.90;;;;;;5018297;28;20710;-82
2020/12/23 12:14:58;;;;;;;10.47;5.80;;;8.40;99.90;;;;;;5018535;28;20667;-82
2020/12/23 12:17:25;;;;;;;13.95;5.82;;;8.50;99.90;;;;;;5018755;28;20555;-82
2020/12/23 12:19:51;;;;;;;10.87;5.60;;;8.50;99.90;;;;;;5018313;28;20214;-82
2020/12/23 12:22:17;;;;;;;13.73;6.07;;;8.30;99.90;;;;;;5018223;28;20947;-82
2020/12/23 12:24:44;;;;;;;14.80;6.37;;;8.20;99.90;;;;;;5018310;28;20244;-82
2020/12/23 12:27:10;;;;;;;10.45;6.35;;;8.30;99.90;;;;;;5020088;28;20473;-83
2020/12/23 12:29:38;;;;;;;16.80;6.80;;;8.20;99.90;;;;;;5019669;28;20564;-82
2020/12/23 12:32:05;;;;;;;11.35;6.40;;;8.20;99.90;;;;;;5018280;28;20291;-82
2020/12/23 12:34:32;;;;;;;14.95;7.25;;;8.30;99.90;;;;;;5019003;28;20307;-82
2020/12/23 12:36:59;;;;;;;17.30;6.55;;;8.40;99.90;;;;;;5018017;28;20258;-81
2020/12/23 12:39:25;;;;;;;14.85;6.97;;;8.60;99.90;;;;;;5017971;28;20263;-81
2020/12/23 12:41:52;;;;;;;12.30;5.97;;;8.60;99.90;;;;;;5017629;28;20578;-81
2020/12/23 12:44:18;;;;;;;11.60;5.00;;;8.60;99.90;;;;;;5017653;28;20467;-82
2020/12/23 12:46:47;;;;;;;12.18;6.40;;;8.50;99.90;;;;;;5017970;28;20235;-82
2020/12/23 12:49:14;;;;;;;19.97;6.27;;;8.50;99.90;;;;;;5017691;28;20207;-81
2020/12/23 12:51:40;;;;;;;17.15;6.00;;;8.40;99.90;;;;;;5016496;28;20447;-81
2020/12/23 12:54:06;;;;;;;11.90;6.47;;;8.40;99.90;;;;;;5017086;28;20235;-82